createdAt,value
2022-09-05T00:02:39.319Z,7.20
2022-09-05T00:06:02.273Z,7.75
2022-09-05T00:08:51.169Z,7.10
2022-09-05T00:12:00.217Z,7.00
2022-09-05T00:15:18.885Z,7.50
2022-09-05T00:23:48.478Z,7.72
2022-09-05T00:24:28.182Z,7.90
2022-09-05T00:25:52.512Z,8.80
2022-09-05T00:29:00.260Z,8.98
2022-09-05T00:32:11.389Z,8.40
2022-09-05T00:35:35.690Z,7.70
2022-09-05T00:38:32.127Z,8.40
2022-09-05T00:41:22.916Z,8.85
2022-09-05T00:44:13.908Z,9.02
2022-09-05T00:47:14.955Z,8.43
2022-09-05T00:50:13.047Z,9.02
2022-09-05T00:53:11.821Z,8.88
2022-09-05T00:56:45.754Z,8.25
2022-09-05T01:00:01.778Z,8.52
2022-09-05T01:03:17.958Z,8.13
2022-09-05T01:06:42.687Z,8.02
2022-09-05T01:10:03.729Z,8.15
2022-09-05T01:13:56.617Z,8.23
2022-09-05T01:17:20.825Z,9.02
2022-09-05T01:20:44.619Z,9.27
2022-09-05T01:24:08.136Z,8.95
2022-09-05T01:26:59.520Z,9.43
2022-09-05T01:30:18.257Z,8.43
2022-09-05T01:33:36.354Z,9.18
2022-09-05T01:36:45.628Z,9.63
2022-09-05T01:40:12.244Z,9.52
2022-09-05T01:43:25.768Z,9.25
2022-09-05T01:46:50.615Z,9.88
2022-09-05T01:50:12.287Z,10.52
2022-09-05T01:53:32.355Z,9.85
2022-09-05T01:57:06.068Z,10.88
2022-09-05T02:00:29.070Z,10.25
2022-09-05T02:03:38.226Z,9.73
2022-09-05T02:06:48.613Z,11.65
2022-09-05T02:10:19.887Z,9.85
2022-09-05T02:13:19.598Z,10.43
2022-09-05T02:16:39.199Z,10.20
2022-09-05T02:19:32.068Z,10.77
2022-09-05T02:22:29.179Z,10.20
2022-09-05T02:26:01.390Z,11.20
2022-09-05T02:28:59.001Z,10.90
2022-09-05T02:31:56.319Z,11.00
2022-09-05T02:35:20.888Z,10.85
2022-09-05T02:41:58.767Z,11.40
2022-09-05T02:45:10.692Z,11.38
2022-09-05T02:45:25.395Z,10.90
2022-09-05T02:48:45.876Z,10.57
2022-09-05T02:57:26.037Z,11.70
2022-09-05T02:57:36.857Z,11.60
2022-09-05T02:59:05.787Z,12.98
2022-09-05T03:02:25.450Z,13.82
2022-09-05T03:05:23.598Z,12.23
2022-09-05T03:08:37.023Z,13.05
2022-09-05T03:12:28.692Z,12.70
2022-09-05T03:15:30.297Z,12.25
2022-09-05T03:19:16.932Z,10.95
2022-09-05T03:22:37.032Z,11.90
2022-09-05T03:25:53.683Z,11.95
2022-09-05T03:29:16.579Z,12.35
2022-09-05T03:32:22.900Z,11.35
2022-09-05T03:35:31.808Z,12.32
2022-09-05T03:39:09.925Z,12.00
2022-09-05T03:42:22.731Z,13.10
2022-09-05T03:45:40.696Z,12.60
2022-09-05T03:49:36.793Z,10.45
2022-09-05T03:57:25.425Z,11.60
2022-09-05T03:57:28.500Z,13.10
2022-09-05T04:00:08.679Z,10.57
2022-09-05T04:08:10.606Z,11.23
2022-09-05T04:08:13.499Z,10.98
2022-09-05T04:09:52.092Z,11.85
2022-09-05T04:12:54.026Z,11.70
2022-09-05T04:16:00.843Z,12.27
2022-09-05T04:18:55.006Z,11.70
2022-09-05T04:21:55.723Z,12.02
2022-09-05T04:25:04.692Z,10.65
2022-09-05T04:28:33.493Z,11.25
2022-09-05T04:31:56.317Z,10.93
2022-09-05T04:35:52.692Z,11.23
2022-09-05T04:38:44.297Z,9.90
2022-09-05T04:41:37.700Z,9.60
2022-09-05T04:44:44.749Z,10.57
2022-09-05T04:47:43.794Z,11.43
2022-09-05T04:50:43.078Z,10.32
2022-09-05T04:54:21.507Z,10.05
2022-09-05T04:57:14.128Z,10.20
2022-09-05T05:06:04.359Z,10.05
2022-09-05T05:06:14.278Z,11.50
2022-09-05T05:07:07.727Z,11.18
2022-09-05T05:11:28.911Z,11.35
2022-09-05T05:18:02.334Z,11.38
2022-09-05T05:18:11.662Z,11.68
2022-09-05T05:20:41.878Z,11.27
2022-09-05T05:23:39.695Z,11.65
2022-09-05T05:26:49.320Z,11.43
2022-09-05T05:29:50.490Z,13.13
2022-09-05T05:32:52.630Z,11.25
2022-09-05T05:35:48.158Z,11.07
2022-09-05T05:38:48.944Z,12.20
2022-09-05T05:41:55.668Z,11.63
2022-09-05T05:44:54.756Z,12.63
2022-09-05T05:47:49.091Z,11.90
2022-09-05T05:51:03.239Z,17.88
2022-09-05T05:54:28.598Z,12.40
2022-09-05T05:58:05.172Z,14.38
2022-09-05T06:01:46.151Z,12.95
2022-09-05T06:05:15.131Z,11.65
2022-09-05T06:10:31.804Z,11.65
2022-09-05T06:15:01.328Z,11.13
2022-09-05T06:16:13.168Z,11.27
2022-09-05T06:22:04.357Z,12.25
2022-09-05T06:23:39.849Z,11.13
2022-09-05T06:26:51.021Z,11.48
2022-09-05T06:30:16.044Z,10.40
2022-09-05T06:33:25.537Z,11.43
2022-09-05T06:36:49.835Z,10.43
2022-09-05T06:40:17.021Z,9.88
2022-09-05T06:43:24.912Z,10.63
2022-09-05T06:46:54.949Z,10.52
2022-09-05T06:50:23.708Z,10.73
2022-09-05T06:53:31.635Z,9.43
2022-09-05T06:57:08.829Z,10.32
2022-09-05T07:03:39.442Z,11.50
2022-09-05T07:07:01.604Z,10.70
2022-09-05T07:10:22.193Z,12.60
2022-09-05T07:13:29.282Z,12.95
2022-09-05T07:16:37.399Z,12.00
2022-09-05T07:20:06.968Z,12.30
2022-09-05T07:24:09.599Z,11.52
2022-09-05T07:26:53.693Z,11.75
2022-09-05T07:29:53.323Z,12.57
2022-09-05T07:32:56.834Z,11.32
2022-09-05T07:35:43.812Z,12.40
2022-09-05T07:38:52.509Z,11.90
2022-09-05T07:41:51.135Z,12.20
2022-09-05T07:44:42.103Z,13.60
2022-09-05T07:47:34.550Z,11.52
2022-09-05T07:53:34.725Z,10.75
2022-09-05T07:57:05.031Z,11.27
2022-09-05T08:00:25.564Z,11.55
2022-09-05T08:03:15.072Z,11.85
2022-09-05T08:06:08.990Z,11.88
2022-09-05T08:09:21.581Z,11.57
2022-09-05T08:12:46.585Z,11.20
2022-09-05T08:16:13.180Z,10.30
2022-09-05T08:19:23.442Z,10.57
2022-09-05T08:22:21.477Z,9.65
2022-09-05T08:25:20.966Z,10.00
2022-09-05T08:28:37.503Z,11.00
2022-09-05T08:32:13.558Z,10.35
2022-09-05T08:35:07.314Z,9.55
2022-09-05T08:37:54.547Z,9.15
2022-09-05T08:41:43.188Z,8.63
2022-09-05T08:46:42.801Z,7.97
2022-09-05T08:49:11.315Z,7.97
2022-09-05T08:52:32.270Z,8.52
2022-09-05T08:55:34.234Z,8.10
2022-09-05T08:59:32.374Z,7.57
2022-09-05T09:02:47.547Z,7.20
2022-09-05T09:06:12.329Z,8.95
2022-09-05T09:10:00.323Z,7.07
2022-09-05T09:13:19.690Z,8.45
2022-09-05T09:16:05.210Z,8.80
2022-09-05T09:18:50.318Z,7.05
2022-09-05T09:21:54.209Z,7.53
2022-09-05T09:25:14.348Z,8.23
2022-09-05T09:28:51.778Z,8.32
2022-09-05T09:32:02.648Z,8.18
2022-09-05T09:35:06.191Z,8.02
2022-09-05T09:38:26.398Z,8.18
2022-09-05T09:42:08.586Z,8.75
2022-09-05T09:48:47.897Z,9.02
2022-09-05T09:51:45.691Z,8.05
2022-09-05T09:55:28.582Z,9.38
2022-09-05T09:58:39.799Z,8.10
2022-09-05T10:01:36.471Z,8.07
2022-09-05T10:10:34.810Z,8.00
2022-09-05T10:10:54.222Z,7.88
2022-09-05T10:15:32.613Z,8.20
2022-09-05T10:18:55.943Z,7.88
2022-09-05T10:22:37.754Z,7.57
2022-09-05T10:25:58.167Z,7.78
2022-09-05T10:29:37.372Z,7.93
2022-09-05T10:35:10.780Z,7.50
2022-09-05T10:35:47.921Z,8.02
2022-09-05T10:38:49.835Z,8.55
2022-09-05T10:41:50.088Z,8.70
2022-09-05T10:44:49.154Z,8.35
2022-09-05T10:48:27.471Z,7.28
2022-09-05T10:51:27.141Z,8.48
2022-09-05T10:54:37.926Z,7.70
2022-09-05T10:57:57.458Z,7.38
2022-09-05T11:02:27.671Z,8.38
2022-09-05T11:05:04.868Z,8.55
2022-09-05T11:08:06.606Z,7.97
2022-09-05T11:11:26.010Z,7.63
2022-09-05T11:14:49.453Z,7.95
2022-09-05T11:20:51.384Z,7.85
2022-09-05T11:23:47.594Z,7.35
2022-09-05T11:27:24.677Z,8.07
2022-09-05T11:30:29.816Z,6.95
2022-09-05T11:39:50.489Z,6.68
2022-09-05T11:39:53.790Z,7.28
2022-09-05T11:41:57.422Z,7.50
2022-09-05T11:45:03.875Z,7.60
2022-09-05T11:48:25.574Z,6.53
2022-09-05T11:51:37.990Z,6.50
2022-09-05T11:54:35.437Z,6.88
2022-09-05T11:58:43.777Z,6.75
2022-09-05T12:01:36.864Z,6.82
2022-09-05T12:05:48.276Z,6.53
2022-09-05T12:08:39.751Z,6.47
2022-09-05T12:12:34.176Z,6.43
2022-09-05T12:15:26.457Z,6.40
2022-09-05T12:18:44.318Z,5.40
2022-09-05T12:22:16.184Z,6.30
2022-09-05T12:27:38.515Z,6.30
2022-09-05T12:29:32.745Z,5.03
2022-09-05T12:34:15.046Z,4.68
2022-09-05T12:36:10.332Z,4.50
2022-09-05T12:41:33.094Z,5.55
2022-09-05T12:42:56.191Z,6.22
2022-09-05T12:46:24.216Z,5.28
2022-09-05T12:49:34.428Z,5.93
2022-09-05T12:52:33.884Z,4.55
2022-09-05T12:55:39.637Z,4.60
2022-09-05T13:02:58.068Z,4.65
2022-09-05T13:03:05.219Z,6.05
2022-09-05T13:05:01.201Z,4.72
2022-09-05T13:08:13.373Z,5.05
2022-09-05T13:14:46.352Z,4.60
2022-09-05T13:14:52.376Z,4.93
2022-09-05T13:17:44.459Z,4.50
2022-09-05T13:20:39.383Z,4.68
2022-09-05T13:23:51.764Z,4.53
2022-09-05T13:26:55.432Z,3.95
2022-09-05T13:31:44.091Z,3.90
2022-09-05T13:38:19.752Z,3.75
2022-09-05T13:38:20.157Z,3.80
2022-09-05T13:40:26.887Z,3.97
2022-09-05T13:43:28.118Z,3.35
2022-09-05T13:46:28.935Z,4.00
2022-09-05T13:49:31.682Z,3.47
2022-09-05T13:52:38.802Z,3.30
2022-09-05T13:55:54.789Z,3.10
2022-09-05T13:58:56.997Z,3.28
2022-09-05T14:02:25.642Z,3.33
2022-09-05T14:05:20.770Z,3.63
2022-09-05T14:08:35.071Z,3.35
2022-09-05T14:11:55.467Z,3.40
2022-09-05T14:15:10.524Z,4.10
2022-09-05T14:19:01.692Z,3.40
2022-09-05T14:21:49.872Z,3.28
2022-09-05T14:24:44.417Z,2.80
2022-09-05T14:27:35.126Z,2.90
2022-09-05T14:34:35.371Z,2.83
2022-09-05T14:38:01.238Z,2.33
2022-09-05T14:38:04.322Z,2.22
2022-09-05T14:41:13.327Z,2.88
2022-09-05T14:43:56.153Z,2.92
2022-09-05T14:47:06.352Z,2.22
2022-09-05T14:50:20.716Z,2.55
2022-09-05T14:57:23.018Z,2.80
2022-09-05T15:02:39.119Z,2.85
2022-09-05T15:02:51.407Z,2.50
2022-09-05T15:05:00.685Z,2.70
2022-09-05T15:09:04.355Z,2.20
2022-09-05T15:12:23.172Z,2.53
2022-09-05T15:14:08.762Z,2.50
2022-09-05T15:16:43.640Z,2.55
2022-09-05T15:20:06.086Z,2.42
2022-09-05T15:22:42.104Z,2.42
2022-09-05T15:25:24.608Z,2.50
2022-09-05T15:27:52.758Z,2.60
2022-09-05T15:30:35.900Z,3.20
2022-09-05T15:33:17.481Z,2.67
2022-09-05T15:35:45.548Z,3.00
2022-09-05T15:38:55.975Z,2.30
2022-09-05T15:41:26.632Z,2.70
2022-09-05T15:44:03.970Z,2.58
2022-09-05T15:46:37.920Z,2.88
2022-09-05T15:49:22.968Z,2.40
2022-09-05T15:51:57.118Z,2.88
2022-09-05T15:54:38.750Z,3.03
2022-09-05T15:57:17.682Z,3.38
2022-09-05T15:59:51.329Z,3.20
2022-09-05T16:02:31.136Z,3.40
2022-09-05T16:10:27.934Z,3.05
2022-09-05T16:12:08.881Z,2.70
2022-09-05T16:15:39.450Z,2.70
2022-09-05T16:23:13.357Z,3.30
2022-09-05T16:23:25.849Z,3.05
2022-09-05T16:23:56.982Z,2.88
2022-09-05T16:26:34.420Z,3.00
2022-09-05T16:29:28.395Z,2.83
2022-09-05T16:32:05.532Z,2.80
2022-09-05T16:35:04.524Z,3.92
2022-09-05T16:37:58.536Z,3.80
2022-09-05T16:40:34.505Z,2.70
2022-09-05T16:43:27.836Z,2.80
2022-09-05T16:46:22.129Z,3.28
2022-09-05T16:49:18.727Z,3.40
2022-09-05T16:54:45.064Z,2.88
2022-09-05T16:57:26.995Z,3.20
2022-09-05T16:59:57.395Z,3.40
2022-09-05T17:02:34.125Z,3.47
2022-09-05T17:05:12.044Z,3.38
2022-09-05T17:08:16.270Z,3.10
2022-09-05T17:10:57.797Z,3.70
2022-09-05T17:14:08.109Z,3.47
2022-09-05T17:16:45.689Z,3.00
2022-09-05T17:19:22.345Z,3.45
2022-09-05T17:24:49.368Z,3.80
2022-09-05T17:29:30.887Z,3.60
2022-09-05T17:29:37.954Z,3.60
2022-09-05T17:31:54.779Z,3.83
2022-09-05T17:34:38.229Z,4.22
2022-09-05T17:37:26.744Z,4.10
2022-09-05T17:40:18.719Z,3.42
2022-09-05T17:43:02.735Z,4.03
2022-09-05T17:46:22.099Z,5.40
2022-09-05T17:49:18.023Z,8.05
2022-09-05T17:51:51.785Z,5.60
2022-09-05T17:54:33.805Z,5.70
2022-09-05T17:57:35.707Z,4.45
2022-09-05T18:00:49.833Z,4.70
2022-09-05T18:03:39.401Z,4.97
2022-09-05T18:06:35.937Z,4.18
2022-09-05T18:09:30.852Z,6.38
2022-09-05T18:12:38.001Z,4.50
2022-09-05T18:15:16.935Z,4.82
2022-09-05T18:17:47.349Z,6.35
2022-09-05T18:20:40.172Z,4.15
2022-09-05T18:23:39.493Z,3.67
2022-09-05T18:26:17.787Z,18.20
2022-09-05T18:29:06.129Z,8.18
2022-09-05T18:31:41.927Z,9.68
2022-09-05T18:34:15.952Z,5.85
2022-09-05T18:36:45.787Z,4.63
2022-09-05T18:39:29.515Z,4.32
2022-09-05T18:42:33.582Z,5.00
2022-09-05T18:45:33.505Z,4.03
2022-09-05T18:48:09.144Z,4.00
2022-09-05T18:50:46.526Z,8.35
2022-09-05T18:53:30.724Z,9.27
2022-09-05T18:56:31.259Z,6.25
2022-09-05T18:59:37.134Z,4.75
2022-09-05T19:02:28.703Z,4.55
2022-09-05T19:05:28.533Z,4.97
2022-09-05T19:08:04.051Z,5.20
2022-09-05T19:10:36.963Z,5.90
2022-09-05T19:13:16.639Z,4.47
2022-09-05T19:15:58.763Z,8.75
2022-09-05T19:19:15.952Z,9.18
2022-09-05T19:22:09.117Z,6.22
2022-09-05T19:24:45.397Z,5.10
2022-09-05T19:29:24.525Z,4.47
2022-09-05T19:36:45.721Z,6.15
2022-09-05T19:36:55.344Z,8.60
2022-09-05T19:37:11.974Z,4.95
2022-09-05T19:45:32.772Z,4.47
2022-09-05T19:47:26.372Z,4.82
2022-09-05T19:47:46.863Z,4.30
2022-09-05T19:48:07.638Z,4.35
2022-09-05T19:50:35.502Z,4.28
2022-09-05T19:53:09.926Z,4.68
2022-09-05T19:55:39.292Z,5.05
2022-09-05T19:58:28.978Z,7.18
2022-09-05T20:01:12.325Z,6.00
2022-09-05T20:03:45.636Z,4.93
2022-09-05T20:06:31.041Z,5.32
2022-09-05T20:09:15.323Z,6.28
2022-09-05T20:11:57.839Z,4.57
2022-09-05T20:14:31.550Z,4.60
2022-09-05T20:17:28.847Z,4.38
2022-09-05T20:20:10.270Z,5.35
2022-09-05T20:22:48.709Z,4.88
2022-09-05T20:25:43.446Z,4.43
2022-09-05T20:28:21.875Z,11.40
2022-09-05T20:31:08.315Z,5.88
2022-09-05T20:33:56.382Z,6.07
2022-09-05T20:43:17.663Z,5.72
2022-09-05T20:43:22.838Z,5.20
2022-09-05T20:43:30.176Z,5.40
2022-09-05T20:46:02.885Z,5.57
2022-09-05T20:54:06.616Z,11.20
2022-09-05T20:54:19.067Z,7.00
2022-09-05T20:54:34.806Z,5.50
2022-09-05T20:57:16.865Z,5.25
2022-09-05T20:59:47.193Z,5.22
2022-09-05T21:02:28.386Z,5.30
2022-09-05T21:05:20.008Z,4.85
2022-09-05T21:08:07.076Z,6.32
2022-09-05T21:10:55.042Z,5.28
2022-09-05T21:13:52.499Z,5.55
2022-09-05T21:16:30.698Z,9.18
2022-09-05T21:18:58.843Z,6.00
2022-09-05T21:21:33.655Z,5.28
2022-09-05T21:24:16.502Z,5.93
2022-09-05T21:26:49.761Z,6.38
2022-09-05T21:29:32.404Z,10.38
2022-09-05T21:32:07.921Z,10.05
2022-09-05T21:34:45.782Z,6.65
2022-09-05T21:37:18.471Z,6.50
2022-09-05T21:40:00.339Z,10.15
2022-09-05T21:45:09.898Z,8.68
2022-09-05T21:47:42.353Z,7.85
2022-09-05T21:48:15.207Z,9.15
2022-09-05T21:50:52.477Z,6.88
2022-09-05T21:57:31.586Z,6.07
2022-09-05T21:59:25.345Z,5.78
2022-09-05T21:59:38.836Z,5.68
2022-09-05T22:02:10.259Z,6.15
2022-09-05T22:04:41.531Z,5.90
2022-09-05T22:07:25.372Z,6.50
2022-09-05T22:10:04.368Z,5.72
2022-09-05T22:12:35.727Z,6.22
2022-09-05T22:15:27.304Z,5.82
2022-09-05T22:17:58.373Z,6.75
2022-09-05T22:20:45.776Z,6.00
2022-09-05T22:23:18.490Z,5.82
2022-09-05T22:25:45.485Z,6.00
2022-09-05T22:28:26.363Z,6.03
2022-09-05T22:31:07.266Z,6.60
2022-09-05T22:33:36.049Z,5.90
2022-09-05T22:36:04.384Z,5.55
2022-09-05T22:38:32.565Z,6.35
2022-09-05T22:40:59.600Z,5.45
2022-09-05T22:43:26.932Z,5.40
2022-09-05T22:45:57.089Z,6.15
2022-09-05T22:48:24.411Z,5.63
2022-09-05T22:50:52.116Z,6.60
2022-09-05T22:53:18.935Z,6.45
2022-09-05T22:55:45.767Z,6.20
2022-09-05T22:58:14.822Z,6.05
2022-09-05T23:00:44.199Z,6.45
2022-09-05T23:03:11.184Z,6.03
2022-09-05T23:05:38.343Z,6.40
2022-09-05T23:08:06.533Z,5.55
2022-09-05T23:10:35.545Z,5.35
2022-09-05T23:13:11.126Z,5.95
2022-09-05T23:15:38.755Z,5.97
2022-09-05T23:18:06.190Z,7.38
2022-09-05T23:20:34.055Z,7.78
2022-09-05T23:23:07.385Z,7.63
2022-09-05T23:25:35.886Z,5.93
2022-09-05T23:28:08.360Z,5.75
2022-09-05T23:30:37.598Z,6.03
2022-09-05T23:33:09.653Z,5.82
2022-09-05T23:35:37.382Z,5.90
2022-09-05T23:38:10.496Z,5.90
2022-09-05T23:40:38.340Z,5.78
2022-09-05T23:43:05.759Z,5.82
2022-09-05T23:45:32.668Z,6.28
2022-09-05T23:48:00.434Z,5.90
2022-09-05T23:50:28.932Z,6.63
2022-09-05T23:52:55.899Z,7.45
2022-09-05T23:55:23.484Z,6.43
2022-09-05T23:57:58.185Z,5.97
